createdAt,value
2022-08-09T00:00:00.601Z,19.80
2022-08-09T00:04:34.399Z,19.70
2022-08-09T00:08:41.517Z,19.70
2022-08-09T00:12:53.157Z,19.60
2022-08-09T00:17:02.131Z,19.70
2022-08-09T00:21:10.903Z,19.60
2022-08-09T00:25:23.103Z,19.50
2022-08-09T00:30:16.546Z,19.50
2022-08-09T00:34:05.377Z,19.50
2022-08-09T00:38:15.259Z,19.50
2022-08-09T00:44:24.549Z,19.40
2022-08-09T00:46:56.986Z,19.50
2022-08-09T00:51:13.373Z,19.50
2022-08-09T00:56:03.111Z,19.40
2022-08-09T00:59:52.478Z,19.30
2022-08-09T01:04:10.214Z,19.30
2022-08-09T01:08:28.681Z,19.30
2022-08-09T01:12:44.449Z,19.30
2022-08-09T01:17:00.423Z,19.20
2022-08-09T01:21:21.050Z,19.20
2022-08-09T01:25:48.974Z,19.20
2022-08-09T01:30:05.567Z,19.10
2022-08-09T01:34:21.046Z,19.10
2022-08-09T01:38:32.658Z,19.10
2022-08-09T01:42:42.412Z,19.10
2022-08-09T01:46:53.802Z,19.10
2022-08-09T01:51:04.404Z,19.10
2022-08-09T01:55:13.625Z,19.10
2022-08-09T01:59:24.317Z,19.10
2022-08-09T02:03:36.961Z,19.10
2022-08-09T02:08:39.436Z,19.00
2022-08-09T02:12:32.436Z,19.00
2022-08-09T02:16:53.014Z,19.00
2022-08-09T02:21:17.070Z,19.00
2022-08-09T02:25:42.766Z,19.00
2022-08-09T02:30:01.578Z,19.00
2022-08-09T02:34:40.376Z,19.00
2022-08-09T02:38:48.870Z,18.90
2022-08-09T02:43:00.041Z,18.90
2022-08-09T02:47:11.728Z,19.00
2022-08-09T02:51:21.851Z,19.00
2022-08-09T02:55:57.713Z,18.80
2022-08-09T03:00:21.298Z,18.90
2022-08-09T03:04:33.493Z,18.90
2022-08-09T03:08:45.074Z,18.90
2022-08-09T03:12:56.629Z,18.80
2022-08-09T03:17:06.008Z,18.90
2022-08-09T03:21:17.811Z,18.80
2022-08-09T03:26:02.234Z,18.80
2022-08-09T03:30:07.591Z,18.90
2022-08-09T03:34:16.471Z,18.90
2022-08-09T03:38:28.923Z,18.90
2022-08-09T03:42:39.922Z,18.80
2022-08-09T03:46:53.485Z,18.80
2022-08-09T03:51:07.299Z,18.80
2022-08-09T03:55:36.766Z,18.80
2022-08-09T03:59:54.498Z,18.70
2022-08-09T04:04:10.111Z,18.60
2022-08-09T04:08:28.787Z,18.60
2022-08-09T04:12:47.158Z,18.60
2022-08-09T04:16:58.545Z,18.50
2022-08-09T04:21:10.497Z,18.50
2022-08-09T04:25:21.198Z,18.40
2022-08-09T04:29:30.863Z,18.40
2022-08-09T04:33:52.713Z,18.40
2022-08-09T04:38:06.903Z,18.30
2022-08-09T04:42:16.061Z,18.30
2022-08-09T04:46:37.832Z,18.20
2022-08-09T04:50:55.990Z,18.20
2022-08-09T04:55:09.371Z,18.20
2022-08-09T04:59:22.630Z,18.10
2022-08-09T05:03:42.502Z,18.10
2022-08-09T05:07:53.373Z,18.10
2022-08-09T05:12:03.762Z,18.10
2022-08-09T05:16:12.442Z,18.00
2022-08-09T05:20:29.540Z,18.00
2022-08-09T05:24:39.050Z,18.00
2022-08-09T05:28:49.151Z,17.90
2022-08-09T05:33:01.948Z,17.90
2022-08-09T05:37:11.569Z,17.90
2022-08-09T05:41:20.354Z,17.90
2022-08-09T05:45:43.610Z,17.90
2022-08-09T05:50:26.786Z,17.90
2022-08-09T05:54:28.130Z,17.90
2022-08-09T05:58:36.841Z,18.00
2022-08-09T06:02:47.193Z,18.00
2022-08-09T06:06:56.049Z,18.00
2022-08-09T06:11:16.230Z,18.10
2022-08-09T06:15:26.548Z,18.20
2022-08-09T06:19:38.085Z,18.30
2022-08-09T06:23:57.410Z,18.40
2022-08-09T06:28:10.315Z,18.50
2022-08-09T06:32:59.853Z,18.60
2022-08-09T06:36:59.574Z,18.70
2022-08-09T06:41:18.116Z,18.80
2022-08-09T06:46:05.235Z,18.90
2022-08-09T06:50:14.050Z,19.10
2022-08-09T06:54:26.368Z,19.20
2022-08-09T07:00:51.715Z,19.30
2022-08-09T07:03:05.894Z,19.50
2022-08-09T07:07:59.044Z,19.60
2022-08-09T07:11:53.458Z,19.70
2022-08-09T07:16:41.371Z,19.90
2022-08-09T07:20:31.314Z,20.10
2022-08-09T07:24:44.483Z,20.30
2022-08-09T07:29:09.287Z,20.40
2022-08-09T07:33:22.047Z,20.60
2022-08-09T07:37:31.980Z,20.80
2022-08-09T07:41:53.006Z,20.90
2022-08-09T07:46:03.294Z,21.10
2022-08-09T07:50:12.091Z,21.20
2022-08-09T07:54:27.938Z,21.40
2022-08-09T07:58:37.759Z,21.50
2022-08-09T08:02:48.710Z,21.70
2022-08-09T08:07:27.236Z,21.80
2022-08-09T08:12:10.721Z,22.00
2022-08-09T08:15:58.623Z,22.20
2022-08-09T08:20:13.258Z,22.30
2022-08-09T08:24:22.304Z,22.50
2022-08-09T08:28:32.111Z,22.70
2022-08-09T08:32:52.665Z,23.10
2022-08-09T08:37:04.306Z,23.30
2022-08-09T08:41:13.382Z,23.30
2022-08-09T08:45:36.823Z,23.60
2022-08-09T08:49:49.126Z,23.90
2022-08-09T08:54:03.379Z,24.00
2022-08-09T08:58:13.436Z,24.20
2022-08-09T09:02:30.963Z,24.40
2022-08-09T09:06:43.128Z,24.80
2022-08-09T09:10:58.344Z,25.10
2022-08-09T09:15:08.516Z,25.30
2022-08-09T09:19:40.769Z,25.50
2022-08-09T09:23:58.020Z,25.60
2022-08-09T09:28:11.448Z,25.50
2022-08-09T09:32:34.308Z,25.70
2022-08-09T09:36:52.900Z,25.90
2022-08-09T09:41:03.329Z,26.20
2022-08-09T09:45:25.560Z,26.60
2022-08-09T09:50:07.025Z,26.60
2022-08-09T09:54:14.259Z,26.90
2022-08-09T09:58:45.623Z,26.80
2022-08-09T10:02:56.560Z,27.30
2022-08-09T10:07:09.935Z,27.20
2022-08-09T10:11:53.774Z,27.10
2022-08-09T10:16:54.967Z,27.00
2022-08-09T10:20:35.462Z,27.20
2022-08-09T10:24:45.015Z,27.70
2022-08-09T10:29:21.366Z,28.20
2022-08-09T10:34:04.327Z,27.90
2022-08-09T10:38:00.636Z,27.60
2022-08-09T10:42:10.113Z,27.70
2022-08-09T10:46:55.031Z,28.20
2022-08-09T10:51:14.870Z,28.50
2022-08-09T10:55:27.655Z,29.00
2022-08-09T10:59:55.250Z,29.10
2022-08-09T11:04:27.728Z,29.00
2022-08-09T11:08:47.336Z,28.80
2022-08-09T11:13:49.316Z,28.90
2022-08-09T11:17:47.296Z,28.80
2022-08-09T11:22:10.556Z,28.80
2022-08-09T11:26:52.055Z,28.60
2022-08-09T11:31:33.921Z,28.70
2022-08-09T11:35:50.145Z,28.70
2022-08-09T11:40:05.867Z,29.10
2022-08-09T11:44:14.744Z,29.60
2022-08-09T11:48:30.388Z,29.90
2022-08-09T11:53:28.109Z,29.90
2022-08-09T11:57:47.649Z,30.20
2022-08-09T12:02:17.155Z,29.80
2022-08-09T12:06:32.668Z,29.10
2022-08-09T12:10:48.539Z,29.30
2022-08-09T12:15:08.097Z,29.30
2022-08-09T12:19:29.060Z,29.40
2022-08-09T12:24:00.433Z,29.30
2022-08-09T12:28:59.288Z,29.30
2022-08-09T12:32:45.431Z,29.30
2022-08-09T12:37:09.797Z,29.80
2022-08-09T12:41:39.113Z,29.50
2022-08-09T12:45:59.865Z,29.70
2022-08-09T12:50:24.942Z,29.60
2022-08-09T12:55:03.126Z,29.70
2022-08-09T12:59:23.237Z,30.00
2022-08-09T13:03:53.357Z,30.10
2022-08-09T13:08:14.742Z,30.10
2022-08-09T13:12:23.612Z,30.20
2022-08-09T13:16:49.484Z,30.40
2022-08-09T13:22:33.315Z,30.80
2022-08-09T13:25:27.971Z,30.80
2022-08-09T13:30:02.472Z,30.90
2022-08-09T13:34:07.541Z,30.90
2022-08-09T13:38:32.954Z,31.20
2022-08-09T13:42:46.204Z,31.00
2022-08-09T13:47:25.473Z,31.20
2022-08-09T13:51:25.163Z,31.30
2022-08-09T13:55:36.988Z,30.90
2022-08-09T13:59:45.756Z,30.40
2022-08-09T14:04:04.758Z,30.50
2022-08-09T14:08:17.557Z,30.70
2022-08-09T14:12:26.755Z,30.30
2022-08-09T14:16:35.494Z,30.50
2022-08-09T14:20:45.838Z,30.80
2022-08-09T14:24:59.124Z,30.70
2022-08-09T14:30:15.241Z,30.90
2022-08-09T14:33:38.552Z,30.70
2022-08-09T14:38:03.001Z,30.80
2022-08-09T14:42:30.332Z,30.70
2022-08-09T14:47:00.825Z,30.70
2022-08-09T14:51:10.328Z,30.90
2022-08-09T14:55:20.196Z,30.50
2022-08-09T14:59:31.278Z,30.20
2022-08-09T15:03:47.454Z,30.20
2022-08-09T15:07:58.309Z,30.50
2022-08-09T15:12:09.775Z,30.70
2022-08-09T15:16:21.705Z,31.10
2022-08-09T15:22:01.116Z,31.10
2022-08-09T15:25:03.732Z,31.00
2022-08-09T15:30:55.393Z,31.00
2022-08-09T15:34:19.599Z,30.60
2022-08-09T15:38:12.325Z,30.40
2022-08-09T15:42:21.767Z,30.60
2022-08-09T15:46:34.490Z,30.10
2022-08-09T15:50:48.182Z,29.80
2022-08-09T15:54:57.552Z,29.90
2022-08-09T15:59:06.230Z,30.20
2022-08-09T16:03:18.863Z,30.00
2022-08-09T16:07:45.959Z,30.10
2022-08-09T16:11:58.570Z,30.10
2022-08-09T16:16:17.172Z,29.70
2022-08-09T16:20:30.164Z,29.80
2022-08-09T16:24:40.534Z,29.90
2022-08-09T16:28:51.072Z,29.50
2022-08-09T16:33:09.946Z,29.50
2022-08-09T16:37:18.834Z,29.30
2022-08-09T16:42:02.784Z,29.40
2022-08-09T16:45:58.119Z,29.70
2022-08-09T16:50:32.660Z,29.80
2022-08-09T16:54:36.832Z,29.80
2022-08-09T16:58:51.587Z,29.60
2022-08-09T17:03:00.363Z,29.70
2022-08-09T17:08:43.336Z,29.50
2022-08-09T17:11:41.539Z,28.90
2022-08-09T17:15:59.769Z,29.10
2022-08-09T17:20:30.413Z,28.80
2022-08-09T17:24:41.497Z,28.40
2022-08-09T17:28:56.798Z,28.60
2022-08-09T17:33:22.472Z,28.60
2022-08-09T17:37:31.861Z,28.50
2022-08-09T17:42:01.320Z,28.40
2022-08-09T17:46:10.699Z,28.10
2022-08-09T17:50:24.936Z,27.90
2022-08-09T17:54:46.091Z,27.70
2022-08-09T17:59:01.245Z,27.70
2022-08-09T18:03:14.161Z,27.50
2022-08-09T18:07:24.401Z,27.40
2022-08-09T18:12:05.184Z,27.30
2022-08-09T18:16:09.403Z,27.20
2022-08-09T18:21:01.752Z,27.00
2022-08-09T18:24:49.196Z,26.80
2022-08-09T18:30:39.440Z,26.70
2022-08-09T18:33:28.419Z,26.60
2022-08-09T18:37:48.494Z,26.50
2022-08-09T18:42:08.106Z,26.20
2022-08-09T18:46:47.909Z,26.00
2022-08-09T18:50:47.025Z,25.80
2022-08-09T18:54:56.144Z,25.60
2022-08-09T18:59:07.664Z,25.50
2022-08-09T19:03:16.442Z,25.40
2022-08-09T19:07:25.182Z,25.20
2022-08-09T19:11:38.201Z,25.10
2022-08-09T19:15:49.240Z,24.90
2022-08-09T19:20:00.762Z,24.70
2022-08-09T19:24:36.082Z,24.50
2022-08-09T19:28:42.601Z,24.40
2022-08-09T19:33:00.025Z,24.30
2022-08-09T19:37:09.716Z,24.10
2022-08-09T19:41:33.245Z,23.90
2022-08-09T19:45:44.438Z,23.70
2022-08-09T19:50:06.997Z,23.60
2022-08-09T19:54:23.597Z,23.50
2022-08-09T19:58:33.864Z,23.40
2022-08-09T20:04:17.183Z,23.20
2022-08-09T20:07:21.075Z,23.10
2022-08-09T20:11:33.844Z,23.00
2022-08-09T20:16:34.090Z,22.90
2022-08-09T20:20:24.662Z,22.80
2022-08-09T20:24:35.223Z,22.60
2022-08-09T20:28:48.726Z,22.50
2022-08-09T20:32:58.794Z,22.40
2022-08-09T20:37:07.813Z,22.30
2022-08-09T20:41:20.342Z,22.20
2022-08-09T20:45:59.419Z,22.10
2022-08-09T20:50:14.735Z,22.00
2022-08-09T20:54:41.018Z,22.00
2022-08-09T20:59:03.112Z,21.90
2022-08-09T21:03:12.505Z,21.80
2022-08-09T21:07:38.512Z,21.70
2022-08-09T21:16:19.377Z,21.60
2022-08-09T21:20:30.061Z,21.60
2022-08-09T21:24:59.370Z,21.50
2022-08-09T21:29:11.982Z,21.40
2022-08-09T21:33:24.081Z,21.30
2022-08-09T21:37:58.583Z,21.30
2022-08-09T21:42:10.667Z,21.30
2022-08-09T21:46:19.771Z,21.20
2022-08-09T21:50:38.774Z,21.20
2022-08-09T21:54:50.816Z,21.10
2022-08-09T21:59:08.416Z,21.10
2022-08-09T22:03:25.386Z,21.00
2022-08-09T22:07:51.931Z,21.00
2022-08-09T22:12:17.487Z,20.90
2022-08-09T22:16:27.560Z,20.90
2022-08-09T22:20:36.834Z,20.80
2022-08-09T22:26:04.513Z,20.80
2022-08-09T22:29:18.287Z,20.80
2022-08-09T22:33:42.559Z,20.80
2022-08-09T22:38:07.410Z,20.70
2022-08-09T22:42:21.874Z,20.70
2022-08-09T22:48:18.626Z,20.70
2022-08-09T22:51:01.712Z,20.60
2022-08-09T22:55:22.514Z,20.50
2022-08-09T22:59:57.013Z,20.60
2022-08-09T23:04:06.087Z,20.50
2022-08-09T23:08:33.495Z,20.50
2022-08-09T23:12:42.846Z,20.40
2022-08-09T23:16:52.991Z,20.40
2022-08-09T23:21:01.542Z,20.50
2022-08-09T23:25:11.234Z,20.40
2022-08-09T23:29:19.751Z,20.40
2022-08-09T23:33:29.876Z,20.50
2022-08-09T23:37:38.443Z,20.50
2022-08-09T23:41:47.015Z,20.50
2022-08-09T23:45:55.552Z,20.50
2022-08-09T23:50:06.331Z,20.50
2022-08-09T23:54:14.993Z,20.50
2022-08-09T23:58:29.906Z,20.50
